createdAt,value
2019-02-18T00:00:31.899Z,5.00
2019-02-18T00:03:02.287Z,6.87
2019-02-18T00:05:31.455Z,3.93
2019-02-18T00:08:00.623Z,5.57
2019-02-18T00:10:29.770Z,3.93
2019-02-18T00:12:58.940Z,4.77
2019-02-18T00:15:28.107Z,4.00
2019-02-18T00:17:57.280Z,2.77
2019-02-18T00:20:27.887Z,4.90
2019-02-18T00:22:57.039Z,4.73
2019-02-18T00:25:26.205Z,4.50
2019-02-18T00:27:55.435Z,6.23
2019-02-18T00:30:24.678Z,5.87
2019-02-18T00:32:53.950Z,4.23
2019-02-18T00:35:23.190Z,4.93
2019-02-18T00:37:52.355Z,3.97
2019-02-18T00:40:21.523Z,5.03
2019-02-18T00:42:50.697Z,4.67
2019-02-18T00:45:19.922Z,5.30
2019-02-18T00:47:49.092Z,5.97
2019-02-18T00:50:18.242Z,4.90
2019-02-18T00:52:47.407Z,3.57
2019-02-18T00:55:16.651Z,4.90
2019-02-18T00:57:45.819Z,3.30
2019-02-18T01:00:17.398Z,4.63
2019-02-18T01:02:46.650Z,4.27
2019-02-18T01:05:16.020Z,4.43
2019-02-18T01:07:45.171Z,3.47
2019-02-18T01:10:14.616Z,4.90
2019-02-18T01:12:43.862Z,3.10
2019-02-18T01:15:14.347Z,3.87
2019-02-18T01:17:43.594Z,3.83
2019-02-18T01:20:13.770Z,4.20
2019-02-18T01:22:42.934Z,4.47
2019-02-18T01:25:13.439Z,4.27
2019-02-18T01:27:42.703Z,7.33
2019-02-18T01:30:15.055Z,4.10
2019-02-18T01:32:44.206Z,4.13
2019-02-18T01:35:13.642Z,4.20
2019-02-18T01:37:45.773Z,5.63
2019-02-18T01:40:14.735Z,4.30
2019-02-18T01:42:43.902Z,2.60
2019-02-18T01:45:13.984Z,3.90
2019-02-18T01:47:43.210Z,5.00
2019-02-18T01:50:14.410Z,4.03
2019-02-18T01:52:43.618Z,3.20
2019-02-18T01:55:13.645Z,5.30
2019-02-18T01:57:43.083Z,5.90
2019-02-18T02:00:14.646Z,4.33
2019-02-18T02:02:43.819Z,2.70
2019-02-18T02:05:14.566Z,3.07
2019-02-18T02:07:43.734Z,3.30
2019-02-18T02:10:15.590Z,4.97
2019-02-18T02:12:44.839Z,4.90
2019-02-18T02:15:21.143Z,4.60
2019-02-18T02:17:50.317Z,3.27
2019-02-18T02:20:19.549Z,3.73
2019-02-18T02:22:48.784Z,3.93
2019-02-18T02:25:18.182Z,6.53
2019-02-18T02:27:47.355Z,3.60
2019-02-18T02:30:16.539Z,3.23
2019-02-18T02:32:45.788Z,3.30
2019-02-18T02:35:15.104Z,2.77
2019-02-18T02:37:44.345Z,4.50
2019-02-18T02:40:13.575Z,4.50
2019-02-18T02:42:42.819Z,4.03
2019-02-18T02:45:11.971Z,3.07
2019-02-18T02:47:41.140Z,5.40
2019-02-18T02:50:10.374Z,3.87
2019-02-18T02:52:39.611Z,4.13
2019-02-18T02:55:08.852Z,3.40
2019-02-18T02:57:38.083Z,5.60
2019-02-18T03:00:12.570Z,3.67
2019-02-18T03:02:41.820Z,4.30
2019-02-18T03:05:11.051Z,3.00
2019-02-18T03:07:41.363Z,3.17
2019-02-18T03:10:12.285Z,2.90
2019-02-18T03:12:41.518Z,3.50
2019-02-18T03:15:15.498Z,3.43
2019-02-18T03:17:45.934Z,3.90
2019-02-18T03:20:15.111Z,2.93
2019-02-18T03:22:44.331Z,3.10
2019-02-18T03:25:24.047Z,4.30
2019-02-18T03:28:05.171Z,4.67
2019-02-18T03:30:40.563Z,3.40
2019-02-18T03:33:26.024Z,3.03
2019-02-18T03:35:55.266Z,2.80
2019-02-18T03:38:31.404Z,3.33
2019-02-18T03:41:02.847Z,3.40
2019-02-18T03:43:26.631Z,2.77
2019-02-18T03:45:55.801Z,3.70
2019-02-18T03:48:25.028Z,4.07
2019-02-18T03:50:54.583Z,2.97
2019-02-18T03:53:23.810Z,2.47
2019-02-18T03:55:53.180Z,3.43
2019-02-18T03:58:22.422Z,2.80
2019-02-18T04:00:51.663Z,2.23
2019-02-18T04:03:20.836Z,2.77
2019-02-18T04:05:50.122Z,3.00
2019-02-18T04:08:19.287Z,3.40
2019-02-18T04:10:48.643Z,2.60
2019-02-18T04:13:17.807Z,2.57
2019-02-18T04:15:47.241Z,2.50
2019-02-18T04:18:16.405Z,3.00
2019-02-18T04:20:45.651Z,4.63
2019-02-18T04:23:14.810Z,3.20
2019-02-18T04:25:43.978Z,2.90
2019-02-18T04:28:13.147Z,2.77
2019-02-18T04:30:42.378Z,4.23
2019-02-18T04:33:11.754Z,1.97
2019-02-18T04:35:40.983Z,4.17
2019-02-18T04:38:10.232Z,2.93
2019-02-18T04:40:39.455Z,2.17
2019-02-18T04:43:08.621Z,4.73
2019-02-18T04:45:37.791Z,2.07
2019-02-18T04:48:06.958Z,4.07
2019-02-18T04:50:36.111Z,3.17
2019-02-18T04:53:05.304Z,3.47
2019-02-18T04:55:34.525Z,2.10
2019-02-18T04:58:06.205Z,4.10
2019-02-18T05:00:34.968Z,3.43
2019-02-18T05:03:04.202Z,3.00
2019-02-18T05:05:33.438Z,1.90
2019-02-18T05:08:02.693Z,1.70
2019-02-18T05:10:31.926Z,2.63
2019-02-18T05:13:01.218Z,1.87
2019-02-18T05:15:30.459Z,2.30
2019-02-18T05:17:59.634Z,3.60
2019-02-18T05:20:28.878Z,2.90
2019-02-18T05:22:58.118Z,3.03
2019-02-18T05:25:27.271Z,2.53
2019-02-18T05:27:56.520Z,3.70
2019-02-18T05:30:25.758Z,2.57
2019-02-18T05:32:54.962Z,2.47
2019-02-18T05:35:25.535Z,1.80
2019-02-18T05:37:54.763Z,4.40
2019-02-18T05:40:24.008Z,2.87
2019-02-18T05:42:53.240Z,3.30
2019-02-18T05:45:22.484Z,2.30
2019-02-18T05:47:51.714Z,5.17
2019-02-18T05:50:20.959Z,2.60
2019-02-18T05:52:50.129Z,1.93
2019-02-18T05:55:19.372Z,3.47
2019-02-18T05:57:48.607Z,4.17
2019-02-18T06:00:17.781Z,3.40
2019-02-18T06:02:47.017Z,3.10
2019-02-18T06:05:16.256Z,2.53
2019-02-18T06:07:45.490Z,2.73
2019-02-18T06:10:16.983Z,5.37
2019-02-18T06:12:45.583Z,3.07
2019-02-18T06:15:14.758Z,1.63
2019-02-18T06:17:43.999Z,2.43
2019-02-18T06:20:13.239Z,2.07
2019-02-18T06:22:42.407Z,2.83
2019-02-18T06:25:11.571Z,2.27
2019-02-18T06:27:40.815Z,2.63
2019-02-18T06:30:10.835Z,2.07
2019-02-18T06:32:40.081Z,1.80
2019-02-18T06:35:09.331Z,2.97
2019-02-18T06:37:38.577Z,2.10
2019-02-18T06:40:08.734Z,3.47
2019-02-18T06:42:37.970Z,3.63
2019-02-18T06:45:27.298Z,2.33
2019-02-18T06:47:57.940Z,1.83
2019-02-18T06:50:27.171Z,2.20
2019-02-18T06:52:56.338Z,2.97
2019-02-18T06:55:25.490Z,1.67
2019-02-18T06:57:59.017Z,2.40
2019-02-18T07:00:29.890Z,2.87
2019-02-18T07:03:03.490Z,2.00
2019-02-18T07:05:43.180Z,3.37
2019-02-18T07:08:13.985Z,2.07
2019-02-18T07:10:44.800Z,3.40
2019-02-18T07:13:14.046Z,2.60
2019-02-18T07:15:43.206Z,1.87
2019-02-18T07:18:12.447Z,2.33
2019-02-18T07:20:41.674Z,2.07
2019-02-18T07:23:10.916Z,2.50
2019-02-18T07:25:40.170Z,2.33
2019-02-18T07:28:09.340Z,4.43
2019-02-18T07:30:38.695Z,3.00
2019-02-18T07:33:07.938Z,2.40
2019-02-18T07:35:37.095Z,2.30
2019-02-18T07:38:06.262Z,2.27
2019-02-18T07:40:35.435Z,3.93
2019-02-18T07:43:04.665Z,1.90
2019-02-18T07:45:33.906Z,4.60
2019-02-18T07:48:03.083Z,2.83
2019-02-18T07:50:32.319Z,3.17
2019-02-18T07:53:01.472Z,3.13
2019-02-18T07:55:30.646Z,1.67
2019-02-18T07:58:00.072Z,2.37
2019-02-18T08:00:29.314Z,4.47
2019-02-18T08:02:58.558Z,2.67
2019-02-18T08:05:27.800Z,1.80
2019-02-18T08:07:57.042Z,3.47
2019-02-18T08:10:26.199Z,3.07
2019-02-18T08:12:55.443Z,3.50
2019-02-18T08:15:24.606Z,1.70
2019-02-18T08:17:53.774Z,2.60
2019-02-18T08:20:22.946Z,1.53
2019-02-18T08:22:52.174Z,3.07
2019-02-18T08:25:21.350Z,3.93
2019-02-18T08:27:50.578Z,2.77
2019-02-18T08:30:19.750Z,4.13
2019-02-18T08:32:50.187Z,3.37
2019-02-18T08:35:19.439Z,2.47
2019-02-18T08:37:48.681Z,1.93
2019-02-18T08:40:22.398Z,2.10
2019-02-18T08:42:49.019Z,1.87
2019-02-18T08:45:18.187Z,2.43
2019-02-18T08:47:47.576Z,2.77
2019-02-18T08:50:16.815Z,2.67
2019-02-18T08:52:46.046Z,4.03
2019-02-18T08:55:15.292Z,2.33
2019-02-18T08:57:44.532Z,4.27
2019-02-18T09:00:16.612Z,3.07
2019-02-18T09:02:45.848Z,1.53
2019-02-18T09:05:15.203Z,3.23
2019-02-18T09:07:44.532Z,2.37
2019-02-18T09:10:14.542Z,3.07
2019-02-18T09:12:43.784Z,3.00
2019-02-18T09:15:14.255Z,2.77
2019-02-18T09:17:44.003Z,2.97
2019-02-18T09:20:13.211Z,1.70
2019-02-18T09:22:52.615Z,3.70
2019-02-18T09:25:35.646Z,2.47
2019-02-18T09:28:05.013Z,2.97
2019-02-18T09:30:36.047Z,2.73
2019-02-18T09:33:05.405Z,3.70
2019-02-18T09:35:34.627Z,2.70
2019-02-18T09:38:03.798Z,3.43
2019-02-18T09:40:43.943Z,4.17
2019-02-18T09:43:03.890Z,4.13
2019-02-18T09:45:33.055Z,3.27
2019-02-18T09:48:02.227Z,2.47
2019-02-18T09:50:31.466Z,2.63
2019-02-18T09:53:02.433Z,2.17
2019-02-18T09:55:31.610Z,4.53
2019-02-18T09:58:00.882Z,3.63
2019-02-18T10:00:30.122Z,2.43
2019-02-18T10:02:59.288Z,2.57
2019-02-18T10:05:28.538Z,3.67
2019-02-18T10:07:57.702Z,3.40
2019-02-18T10:10:26.940Z,4.00
2019-02-18T10:12:59.501Z,2.43
2019-02-18T10:15:28.014Z,3.80
2019-02-18T10:17:57.186Z,3.73
2019-02-18T10:20:26.410Z,2.20
2019-02-18T10:22:55.646Z,4.37
2019-02-18T10:25:24.814Z,2.97
2019-02-18T10:27:54.623Z,2.13
2019-02-18T10:30:23.782Z,1.97
2019-02-18T10:32:53.223Z,2.90
2019-02-18T10:35:22.391Z,4.43
2019-02-18T10:37:55.211Z,2.77
2019-02-18T10:40:23.461Z,5.17
2019-02-18T10:42:52.685Z,2.70
2019-02-18T10:45:21.926Z,2.23
2019-02-18T10:47:51.167Z,3.27
2019-02-18T10:50:20.476Z,1.93
2019-02-18T10:52:49.715Z,3.90
2019-02-18T10:55:19.163Z,3.23
2019-02-18T10:57:48.404Z,4.03
2019-02-18T11:00:17.918Z,2.93
2019-02-18T11:02:47.165Z,3.87
2019-02-18T11:05:16.403Z,2.97
2019-02-18T11:07:45.647Z,5.27
2019-02-18T11:10:17.486Z,2.97
2019-02-18T11:12:47.574Z,1.87
2019-02-18T11:15:17.262Z,3.27
2019-02-18T11:17:46.818Z,4.07
2019-02-18T11:20:16.056Z,2.93
2019-02-18T11:22:45.306Z,2.47
2019-02-18T11:25:15.867Z,2.83
2019-02-18T11:27:45.114Z,3.23
2019-02-18T11:30:18.400Z,3.97
2019-02-18T11:32:47.826Z,2.57
2019-02-18T11:35:18.240Z,2.00
2019-02-18T11:37:47.482Z,3.70
2019-02-18T11:40:18.066Z,3.63
2019-02-18T11:42:47.726Z,3.13
2019-02-18T11:45:17.241Z,2.67
2019-02-18T11:47:46.483Z,3.73
2019-02-18T11:50:15.793Z,2.30
2019-02-18T11:52:45.048Z,2.47
2019-02-18T11:55:14.750Z,2.80
2019-02-18T11:57:44.495Z,2.60
2019-02-18T12:00:17.074Z,2.30
2019-02-18T12:02:46.301Z,3.20
2019-02-18T12:05:15.542Z,2.10
2019-02-18T12:07:44.770Z,5.17
2019-02-18T12:10:14.739Z,3.47
2019-02-18T12:12:44.273Z,4.27
2019-02-18T12:15:14.993Z,3.40
2019-02-18T12:17:44.457Z,2.87
2019-02-18T12:20:14.538Z,4.13
2019-02-18T12:22:43.781Z,2.80
2019-02-18T12:25:13.503Z,2.53
2019-02-18T12:27:43.243Z,4.27
2019-02-18T12:30:19.075Z,2.27
2019-02-18T12:32:48.318Z,3.33
2019-02-18T12:35:17.562Z,3.43
2019-02-18T12:37:55.015Z,2.23
2019-02-18T12:40:17.671Z,4.00
2019-02-18T12:42:46.907Z,4.30
2019-02-18T12:45:16.216Z,2.40
2019-02-18T12:47:45.598Z,3.33
2019-02-18T12:50:14.845Z,2.30
2019-02-18T12:52:44.083Z,3.40
2019-02-18T12:55:13.899Z,2.70
2019-02-18T12:57:43.374Z,3.33
2019-02-18T13:00:15.842Z,1.73
2019-02-18T13:02:45.395Z,3.07
2019-02-18T13:05:14.746Z,4.23
2019-02-18T13:07:43.995Z,2.30
2019-02-18T13:10:13.240Z,3.17
2019-02-18T13:12:42.867Z,2.77
2019-02-18T13:15:14.755Z,2.73
2019-02-18T13:17:43.999Z,3.17
2019-02-18T13:20:13.242Z,2.33
2019-02-18T13:22:42.491Z,3.73
2019-02-18T13:25:11.723Z,2.60
2019-02-18T13:27:41.042Z,2.93
2019-02-18T13:30:16.060Z,4.27
2019-02-18T13:32:45.299Z,2.70
2019-02-18T13:35:14.530Z,4.53
2019-02-18T13:37:43.856Z,3.97
2019-02-18T13:40:16.324Z,3.43
2019-02-18T13:42:45.925Z,2.47
2019-02-18T13:45:16.223Z,3.67
2019-02-18T13:47:45.474Z,4.97
2019-02-18T13:50:14.716Z,2.37
2019-02-18T13:52:43.957Z,3.23
2019-02-18T13:55:14.028Z,3.23
2019-02-18T13:57:43.806Z,2.83
2019-02-18T14:00:21.004Z,1.70
2019-02-18T14:02:50.903Z,3.33
2019-02-18T14:05:21.677Z,5.30
2019-02-18T14:07:50.915Z,2.93
2019-02-18T14:10:20.887Z,3.83
2019-02-18T14:12:50.131Z,5.23
2019-02-18T14:15:19.374Z,2.47
2019-02-18T14:17:50.490Z,2.97
2019-02-18T14:20:19.476Z,3.53
2019-02-18T14:22:48.722Z,3.67
2019-02-18T14:25:18.637Z,3.47
2019-02-18T14:27:47.877Z,4.40
2019-02-18T14:30:18.064Z,5.23
2019-02-18T14:32:47.309Z,3.17
2019-02-18T14:35:17.475Z,3.77
2019-02-18T14:37:46.704Z,4.57
2019-02-18T14:40:17.758Z,2.20
2019-02-18T14:42:47.058Z,3.10
2019-02-18T14:45:16.686Z,2.33
2019-02-18T14:47:45.923Z,3.37
2019-02-18T14:50:18.342Z,2.77
2019-02-18T14:52:47.871Z,2.57
2019-02-18T14:55:17.331Z,2.53
2019-02-18T14:57:46.853Z,3.97
2019-02-18T15:00:21.478Z,2.07
2019-02-18T15:02:52.719Z,4.17
2019-02-18T15:05:23.035Z,3.20
2019-02-18T15:07:52.277Z,3.10
2019-02-18T15:10:21.514Z,3.17
2019-02-18T15:12:50.760Z,3.80
2019-02-18T15:15:21.069Z,2.97
2019-02-18T15:17:51.198Z,5.20
2019-02-18T15:20:20.744Z,3.53
2019-02-18T15:22:49.987Z,3.50
2019-02-18T15:25:19.236Z,3.33
2019-02-18T15:27:48.482Z,3.27
2019-02-18T15:30:17.725Z,3.27
2019-02-18T15:32:46.971Z,2.83
2019-02-18T15:35:17.686Z,3.53
2019-02-18T15:37:46.929Z,3.90
2019-02-18T15:40:17.846Z,4.03
2019-02-18T15:42:47.066Z,4.03
2019-02-18T15:45:16.321Z,3.53
2019-02-18T15:47:45.749Z,4.37
2019-02-18T15:50:16.168Z,3.03
2019-02-18T15:52:45.411Z,5.50
2019-02-18T15:55:14.646Z,3.73
2019-02-18T15:57:43.889Z,4.07
2019-02-18T16:00:18.958Z,4.60
2019-02-18T16:02:48.701Z,4.77
2019-02-18T16:05:17.928Z,4.63
2019-02-18T16:07:47.286Z,2.70
2019-02-18T16:10:16.503Z,4.80
2019-02-18T16:12:50.769Z,3.70
2019-02-18T16:15:16.727Z,4.83
2019-02-18T16:17:46.372Z,4.40
2019-02-18T16:20:15.611Z,4.97
2019-02-18T16:22:44.867Z,4.20
2019-02-18T16:25:20.314Z,5.30
2019-02-18T16:27:49.558Z,4.13
2019-02-18T16:30:18.791Z,4.50
2019-02-18T16:32:48.036Z,5.60
2019-02-18T16:35:17.289Z,4.90
2019-02-18T16:37:46.525Z,6.00
2019-02-18T16:40:17.515Z,5.60
2019-02-18T16:42:46.742Z,6.03
2019-02-18T16:45:15.989Z,3.47
2019-02-18T16:47:45.231Z,3.93
2019-02-18T16:50:14.479Z,4.70
2019-02-18T16:52:43.702Z,5.07
2019-02-18T16:55:14.894Z,4.10
2019-02-18T16:57:44.139Z,3.67
2019-02-18T17:00:20.950Z,5.13
2019-02-18T17:02:51.028Z,3.93
2019-02-18T17:05:20.533Z,4.97
2019-02-18T17:07:49.775Z,5.83
2019-02-18T17:10:19.359Z,5.10
2019-02-18T17:12:49.107Z,5.13
2019-02-18T17:15:18.347Z,6.37
2019-02-18T17:17:47.589Z,6.60
2019-02-18T17:20:16.900Z,6.27
2019-02-18T17:22:46.130Z,4.63
2019-02-18T17:25:15.370Z,7.40
2019-02-18T17:27:45.215Z,5.67
2019-02-18T17:30:15.779Z,8.63
2019-02-18T17:32:45.022Z,6.67
2019-02-18T17:35:14.817Z,5.50
2019-02-18T17:37:44.030Z,5.97
2019-02-18T17:40:15.071Z,6.83
2019-02-18T17:42:44.612Z,6.87
2019-02-18T17:45:16.360Z,7.47
2019-02-18T17:47:45.586Z,6.77
2019-02-18T17:50:18.203Z,8.23
2019-02-18T17:52:47.512Z,6.90
2019-02-18T17:55:18.431Z,5.10
2019-02-18T17:57:49.203Z,7.33
2019-02-18T18:00:23.338Z,5.73
2019-02-18T18:02:52.588Z,6.47
2019-02-18T18:05:21.826Z,5.90
2019-02-18T18:07:51.070Z,7.30
2019-02-18T18:10:20.803Z,6.20
2019-02-18T18:12:50.191Z,6.93
2019-02-18T18:15:20.357Z,5.80
2019-02-18T18:17:50.172Z,7.77
2019-02-18T18:20:20.586Z,5.83
2019-02-18T18:22:49.828Z,6.57
2019-02-18T18:25:19.126Z,7.50
2019-02-18T18:27:48.606Z,9.40
2019-02-18T18:30:19.017Z,8.87
2019-02-18T18:32:48.218Z,6.67
2019-02-18T18:35:17.455Z,6.07
2019-02-18T18:37:46.694Z,6.43
2019-02-18T18:40:18.078Z,7.40
2019-02-18T18:42:47.310Z,6.90
2019-02-18T18:45:17.892Z,5.23
2019-02-18T18:47:47.343Z,6.10
2019-02-18T18:50:23.249Z,5.90
2019-02-18T18:52:52.450Z,8.07
2019-02-18T18:55:21.602Z,5.27
2019-02-18T18:57:50.847Z,4.87
2019-02-18T19:00:25.136Z,7.47
2019-02-18T19:02:54.383Z,8.97
2019-02-18T19:05:24.120Z,5.77
2019-02-18T19:07:53.350Z,6.80
2019-02-18T19:10:22.593Z,7.07
2019-02-18T19:12:51.847Z,5.73
2019-02-18T19:15:21.058Z,6.93
2019-02-18T19:17:50.299Z,6.53
2019-02-18T19:20:19.527Z,5.60
2019-02-18T19:22:48.771Z,6.27
2019-02-18T19:25:18.015Z,5.93
2019-02-18T19:27:47.262Z,6.90
2019-02-18T19:30:25.529Z,5.97
2019-02-18T19:32:54.774Z,5.87
2019-02-18T19:35:24.022Z,5.80
2019-02-18T19:37:53.266Z,6.23
2019-02-18T19:40:22.578Z,6.83
2019-02-18T19:42:52.123Z,5.40
2019-02-18T19:45:23.218Z,7.13
2019-02-18T19:47:52.442Z,5.37
2019-02-18T19:50:21.614Z,7.43
2019-02-18T19:52:50.901Z,5.70
2019-02-18T19:55:20.091Z,6.13
2019-02-18T19:57:49.334Z,8.50
2019-02-18T20:00:20.220Z,4.97
2019-02-18T20:02:49.526Z,5.63
2019-02-18T20:05:18.770Z,3.90
2019-02-18T20:07:48.004Z,5.83
2019-02-18T20:10:17.251Z,5.17
2019-02-18T20:12:46.562Z,5.83
2019-02-18T20:15:16.262Z,7.33
2019-02-18T20:17:45.509Z,6.37
2019-02-18T20:20:16.475Z,5.30
2019-02-18T20:22:45.715Z,5.50
2019-02-18T20:25:14.964Z,4.80
2019-02-18T20:27:44.794Z,4.77
2019-02-18T20:30:15.465Z,5.30
2019-02-18T20:32:44.706Z,6.07
2019-02-18T20:35:13.946Z,4.77
2019-02-18T20:37:43.202Z,6.63
2019-02-18T20:40:12.433Z,5.00
2019-02-18T20:42:42.171Z,6.27
2019-02-18T20:45:14.979Z,6.70
2019-02-18T20:47:44.215Z,4.97
2019-02-18T20:50:15.097Z,5.47
2019-02-18T20:52:44.493Z,4.27
2019-02-18T20:55:14.983Z,5.07
2019-02-18T20:57:45.575Z,5.23
2019-02-18T21:00:18.535Z,5.37
2019-02-18T21:02:48.051Z,5.13
2019-02-18T21:05:17.270Z,5.13
2019-02-18T21:07:47.596Z,5.20
2019-02-18T21:10:18.978Z,3.97
2019-02-18T21:12:48.246Z,6.50
2019-02-18T21:15:17.462Z,5.70
2019-02-18T21:17:46.692Z,7.13
2019-02-18T21:20:15.935Z,6.70
2019-02-18T21:22:45.306Z,4.53
2019-02-18T21:25:14.550Z,4.63
2019-02-18T21:27:43.795Z,5.20
2019-02-18T21:30:14.983Z,4.17
2019-02-18T21:32:44.230Z,4.47
2019-02-18T21:35:13.395Z,5.00
2019-02-18T21:37:43.047Z,4.97
2019-02-18T21:40:12.347Z,4.67
2019-02-18T21:42:41.592Z,4.87
2019-02-18T21:45:16.888Z,4.13
2019-02-18T21:47:46.126Z,4.20
2019-02-18T21:50:15.374Z,5.07
2019-02-18T21:52:44.614Z,6.17
2019-02-18T21:55:13.862Z,5.10
2019-02-18T21:57:43.086Z,4.93
2019-02-18T22:00:17.070Z,5.10
2019-02-18T22:02:46.651Z,4.50
2019-02-18T22:05:16.383Z,4.30
2019-02-18T22:07:45.626Z,4.90
2019-02-18T22:10:14.985Z,4.70
2019-02-18T22:12:44.507Z,4.57
2019-02-18T22:15:16.791Z,5.53
2019-02-18T22:17:46.018Z,5.00
2019-02-18T22:20:15.872Z,3.53
2019-02-18T22:22:45.090Z,5.47
2019-02-18T22:25:14.334Z,3.53
2019-02-18T22:27:43.574Z,4.17
2019-02-18T22:30:16.807Z,5.00
2019-02-18T22:32:47.123Z,5.23
2019-02-18T22:35:16.849Z,5.17
2019-02-18T22:37:46.167Z,3.90
2019-02-18T22:40:15.490Z,4.13
2019-02-18T22:42:44.740Z,3.87
2019-02-18T22:45:15.134Z,5.27
2019-02-18T22:47:44.386Z,4.10
2019-02-18T22:50:13.931Z,4.43
2019-02-18T22:52:43.162Z,4.63
2019-02-18T22:55:12.408Z,4.37
2019-02-18T22:57:41.707Z,4.53
2019-02-18T23:00:46.031Z,3.30
2019-02-18T23:03:15.262Z,5.17
2019-02-18T23:05:44.517Z,6.57
2019-02-18T23:08:13.746Z,6.40
2019-02-18T23:10:42.977Z,5.93
2019-02-18T23:13:12.311Z,6.50
2019-02-18T23:15:41.936Z,4.43
2019-02-18T23:18:11.179Z,4.33
2019-02-18T23:20:40.426Z,7.63
2019-02-18T23:23:09.659Z,7.53
2019-02-18T23:25:38.899Z,6.73
2019-02-18T23:28:08.137Z,6.87
2019-02-18T23:30:37.686Z,6.30
2019-02-18T23:33:06.915Z,7.37
2019-02-18T23:35:36.158Z,6.53
2019-02-18T23:38:05.314Z,5.80
2019-02-18T23:40:34.558Z,5.23
2019-02-18T23:43:03.898Z,5.10
2019-02-18T23:45:33.066Z,6.07
2019-02-18T23:48:02.231Z,5.73
2019-02-18T23:50:31.400Z,7.17
2019-02-18T23:53:00.639Z,6.53
2019-02-18T23:55:29.866Z,6.10
2019-02-18T23:57:59.037Z,4.50
